Weather - Helsinki Query any day in the database

Current weather  

Weather data for a selected day (2006-01-01 -2020-10-30)
Enter date:     <-     scroll days         ->
day curves
Low temperature°C -31.007:20
High temperature°C -16.016:50
Low wind chill°C -35.207:20
Average temperature°C -23.5 
High wind speed (10 min) m/s 2.017:20
Low pressurehPa 1032.023:50
High pressurehPa 1034.011:50
Low R.H% 6414:50
High R.H% 8322:20
Day weather data as a table
Date Time Temp
°C
Chill
°C
Pressure
hPA
Wind
m/s
Hum
%
Precip
mm
2011-02-18 23:50:00 -26.0  -29.6  1032.0 1.0 75 -
2011-02-18 23:20:00 -25.0  -28.5  1032.0 1.0 76 -
2011-02-18 22:50:00 -24.0  -27.4  1032.0 1.0 76 -
2011-02-18 22:20:00 -25.0  -28.5  1032.0 1.0 83 -
2011-02-18 21:50:00 -24.0  -27.4  1032.0 1.0 76 -
2011-02-18 21:20:00 -23.0  -26.3  1032.0 1.0 83 -
2011-02-18 20:50:00 -24.0  -27.4  1032.0 1.0 83 -
2011-02-18 20:20:00 -23.0  -26.3  1032.0 1.0 83 -
2011-02-18 19:50:00 -22.0  -25.2  1032.0 1.0 76 -
2011-02-18 19:20:00 -23.0  -26.3  1032.0 1.0 76 -
2011-02-18 18:50:00 -22.0  -25.2  1032.0 1.0 83 -
2011-02-18 18:20:00 -21.0  -21.0  1032.0 0.0 76 -
2011-02-18 17:50:00 -18.0  -20.8  1032.0 1.0 70 -
2011-02-18 17:20:00 -18.0  -23.4  1032.0 2.0 70 -
2011-02-18 16:50:00 -16.0  -18.6  1033.0 1.0 65 -
2011-02-18 16:20:00 -19.0  -21.9  1032.0 1.0 70 -
2011-02-18 15:50:00 -17.0  -19.7  1033.0 1.0 65 -
2011-02-18 15:20:00 -17.0  -22.3  1033.0 2.0 65 -
2011-02-18 14:50:00 -18.0  -23.4  1033.0 2.0 64 -
2011-02-18 14:20:00 -17.0  -19.7  1033.0 1.0 65 -
2011-02-18 13:50:00 -17.0  -19.7  1033.0 1.0 65 -
2011-02-18 13:20:00 -18.0  -20.8  1033.0 1.0 70 -
2011-02-18 12:50:00 -18.0  -23.4  1033.0 2.0 70 -
2011-02-18 12:20:00 -19.0  -21.9  1033.0 1.0 77 -
2011-02-18 11:50:00 -20.0  -25.8  1034.0 2.0 76 -
2011-02-18 11:20:00 -22.0  -25.2  1034.0 1.0 76 -
2011-02-18 10:50:00 -23.0  -26.3  1034.0 1.0 76 -
2011-02-18 10:20:00 -24.0  -27.4  1034.0 1.0 76 -
2011-02-18 09:50:00 -25.0  -28.5  1034.0 1.0 76 -
2011-02-18 09:20:00 -28.0  -31.9  1034.0 1.0 75 -
2011-02-18 08:50:00 -29.0  -33.0  1034.0 1.0 68 -
2011-02-18 08:20:00 -30.0  -34.1  1034.0 1.0 75 -
2011-02-18 07:50:00 -30.0  -34.1  1033.0 1.0 68 -
2011-02-18 07:20:00 -31.0  -35.2  1033.0 1.0 74 -
2011-02-18 06:50:00 -29.0  -29.0  1033.0 0.0 68 -
2011-02-18 06:20:00 -30.0  -34.1  1033.0 1.0 75 -
2011-02-18 05:50:00 -28.0  -31.9  1033.0 1.0 75 -
2011-02-18 05:20:00 -27.0  -30.8  1033.0 1.0 75 -
2011-02-18 04:50:00 -27.0  -30.8  1033.0 1.0 75 -
2011-02-18 04:20:00 -25.0  -31.6  1033.0 2.0 76 -
2011-02-18 03:50:00 -27.0  -33.9  1033.0 2.0 75 -
2011-02-18 03:20:00 -25.0  -31.6  1034.0 2.0 76 -
2011-02-18 02:50:00 -27.0  -33.9  1034.0 2.0 75 -
2011-02-18 02:20:00 -27.0  -33.9  1034.0 2.0 75 -
2011-02-18 01:50:00 -25.0  -31.6  1034.0 2.0 76 -
2011-02-18 00:50:00 -26.0  -32.8  1033.0 2.0 75 -
2011-02-18 00:20:00 -27.0  -33.9  1034.0 2.0 75 -
Unit conversions: